PASC Airport (Deadhorse) Information

FAA: SCC - ICAO: PASC

PASC Airport Location

State Alaska
County North Slope
City Deadhorse
PASC Airport is 0 miles southeast of Deadhorse, AK.
Latitude 70-11-41.1148N
Longitude 148-27-54.5935W
Elevation 67ft

PASC Airport METARs

METAR PASC 251532Z 07011KT 9SM OVC013 M03/M04 A2931 RMK AO2 SNB05E18 T10281044 PNO $
Altimeter 29.31"
Temperature -2.8°C (27.0°F)
Wind 70° at 11KT
Clouds overcast at 1,300ft
Visibility 9.0mi
Time observed: 2021-10-25T15:32:00Z

PASC Airport Details

Status Operational
Activation April 1970
Ownership Public
Usage Public
Chart POINT BARROW
ATC on-site No
Beacon schedule sunset-sunrise
Beacon color clear green

PASC Airport Contacts

Owner ALASKA DOT&PF NORTHERN REGION
Owner address 2301 PEGER RD, FAIRBANKS, AK 99709
Owner phone 907-451-2200
Manager JOHN HOFFMAN
Manager address P O BOX 7, GLENALLEN, AK 99588
Manager phone 907-822-3222

PASC Airport (Deadhorse) Radio Frequencies

PASC (Airport) Radio Frequencies

UNICOM 123
Common traffic advisory frequency (CTAF) 123.6